sensor_id;sensor_type;location;lat;lon;timestamp;pressure;altitude;pressure_sealevel;temperature;humidity
56040;BME280;43937;41.366;2.072;2023-05-02T00:00:39;101049.88;;;17.75;78.31
56040;BME280;43937;41.366;2.072;2023-05-02T00:03:05;101051.00;;;17.81;78.03
56040;BME280;43937;41.366;2.072;2023-05-02T00:05:31;101045.84;;;17.65;78.97
56040;BME280;43937;41.366;2.072;2023-05-02T00:07:57;101038.03;;;17.68;79.38
56040;BME280;43937;41.366;2.072;2023-05-02T00:10:22;101036.59;;;17.79;78.16
56040;BME280;43937;41.366;2.072;2023-05-02T00:12:47;101022.75;;;17.59;78.50
56040;BME280;43937;41.366;2.072;2023-05-02T00:15:13;101027.00;;;17.68;78.71
56040;BME280;43937;41.366;2.072;2023-05-02T00:17:40;101012.41;;;17.68;78.22
56040;BME280;43937;41.366;2.072;2023-05-02T00:20:08;101011.97;;;17.64;78.86
56040;BME280;43937;41.366;2.072;2023-05-02T00:22:34;101004.13;;;17.61;78.49
56040;BME280;43937;41.366;2.072;2023-05-02T00:25:00;100978.63;;;17.46;78.66
56040;BME280;43937;41.366;2.072;2023-05-02T00:27:25;100981.44;;;17.52;79.13
56040;BME280;43937;41.366;2.072;2023-05-02T00:29:51;100974.25;;;17.58;78.34
56040;BME280;43937;41.366;2.072;2023-05-02T00:32:17;100991.22;;;17.68;78.58
56040;BME280;43937;41.366;2.072;2023-05-02T00:34:43;100987.19;;;17.64;78.34
56040;BME280;43937;41.366;2.072;2023-05-02T00:37:08;100988.47;;;17.68;77.77
56040;BME280;43937;41.366;2.072;2023-05-02T00:39:34;100979.97;;;17.70;78.07
56040;BME280;43937;41.366;2.072;2023-05-02T00:42:00;100978.28;;;17.62;78.14
56040;BME280;43937;41.366;2.072;2023-05-02T00:44:27;100978.47;;;17.54;78.87
56040;BME280;43937;41.366;2.072;2023-05-02T00:46:53;100979.47;;;17.39;79.69
56040;BME280;43937;41.366;2.072;2023-05-02T00:49:19;100968.69;;;17.45;79.08
56040;BME280;43937;41.366;2.072;2023-05-02T00:51:45;100952.13;;;17.25;79.58
56040;BME280;43937;41.366;2.072;2023-05-02T00:54:11;100951.66;;;17.21;79.05
56040;BME280;43937;41.366;2.072;2023-05-02T00:56:37;100966.53;;;17.33;79.15
56040;BME280;43937;41.366;2.072;2023-05-02T00:59:04;100966.28;;;17.22;79.54
56040;BME280;43937;41.366;2.072;2023-05-02T01:05:23;100926.97;;;16.86;79.96
56040;BME280;43937;41.366;2.072;2023-05-02T01:08:11;100956.72;;;17.11;80.31
56040;BME280;43937;41.366;2.072;2023-05-02T01:13:28;100932.56;;;17.06;80.82
56040;BME280;43937;41.366;2.072;2023-05-02T01:15:57;100944.66;;;17.12;81.03
56040;BME280;43937;41.366;2.072;2023-05-02T01:18:25;100939.16;;;17.12;80.84
56040;BME280;43937;41.366;2.072;2023-05-02T01:20:59;100931.31;;;17.09;80.14
56040;BME280;43937;41.366;2.072;2023-05-02T01:29:00;100932.94;;;16.97;81.17
56040;BME280;43937;41.366;2.072;2023-05-02T01:31:38;100924.25;;;16.93;80.77
56040;BME280;43937;41.366;2.072;2023-05-02T01:34:08;100927.63;;;16.88;81.14
56040;BME280;43937;41.366;2.072;2023-05-02T01:38:17;100935.75;;;16.75;81.51
56040;BME280;43937;41.366;2.072;2023-05-02T01:40:46;100933.63;;;16.70;82.19
56040;BME280;43937;41.366;2.072;2023-05-02T01:43:15;100915.53;;;16.55;82.03
56040;BME280;43937;41.366;2.072;2023-05-02T01:45:44;100923.56;;;16.49;82.71
56040;BME280;43937;41.366;2.072;2023-05-02T01:48:12;100927.63;;;16.60;82.39
56040;BME280;43937;41.366;2.072;2023-05-02T01:50:40;100926.13;;;16.58;82.85
56040;BME280;43937;41.366;2.072;2023-05-02T01:53:09;100922.97;;;16.61;82.73
56040;BME280;43937;41.366;2.072;2023-05-02T01:55:39;100924.25;;;16.58;82.29
56040;BME280;43937;41.366;2.072;2023-05-02T01:58:06;100923.03;;;16.67;81.97
56040;BME280;43937;41.366;2.072;2023-05-02T02:00:32;100908.09;;;16.48;82.43
56040;BME280;43937;41.366;2.072;2023-05-02T02:02:59;100926.78;;;16.60;81.90
56040;BME280;43937;41.366;2.072;2023-05-02T02:05:25;100928.25;;;16.56;82.18
56040;BME280;43937;41.366;2.072;2023-05-02T02:07:52;100927.59;;;16.54;82.30
56040;BME280;43937;41.366;2.072;2023-05-02T02:10:18;100932.13;;;16.68;82.08
56040;BME280;43937;41.366;2.072;2023-05-02T02:12:52;100918.50;;;16.53;82.28
56040;BME280;43937;41.366;2.072;2023-05-02T02:15:26;100925.53;;;16.62;82.34
56040;BME280;43937;41.366;2.072;2023-05-02T02:17:59;100916.44;;;16.62;81.69
56040;BME280;43937;41.366;2.072;2023-05-02T02:20:27;100925.56;;;16.69;81.26
56040;BME280;43937;41.366;2.072;2023-05-02T02:22:55;100893.34;;;16.49;81.00
56040;BME280;43937;41.366;2.072;2023-05-02T02:25:21;100928.53;;;16.67;80.82
56040;BME280;43937;41.366;2.072;2023-05-02T02:27:47;100881.22;;;16.37;80.74
56040;BME280;43937;41.366;2.072;2023-05-02T02:30:13;100872.09;;;16.37;80.74
56040;BME280;43937;41.366;2.072;2023-05-02T02:32:40;100901.22;;;16.59;80.58
56040;BME280;43937;41.366;2.072;2023-05-02T02:35:06;100920.88;;;16.63;80.79
56040;BME280;43937;41.366;2.072;2023-05-02T02:37:38;100895.25;;;16.49;80.90
56040;BME280;43937;41.366;2.072;2023-05-02T02:40:20;100898.03;;;16.56;80.77
56040;BME280;43937;41.366;2.072;2023-05-02T02:42:54;100923.63;;;16.63;81.17
56040;BME280;43937;41.366;2.072;2023-05-02T02:45:44;100919.78;;;16.85;80.31
56040;BME280;43937;41.366;2.072;2023-05-02T02:49:00;100912.97;;;16.81;80.11
56040;BME280;43937;41.366;2.072;2023-05-02T02:51:37;100911.31;;;16.80;80.08
56040;BME280;43937;41.366;2.072;2023-05-02T02:54:13;100908.28;;;16.75;80.33
56040;BME280;43937;41.366;2.072;2023-05-02T02:56:47;100896.63;;;16.73;79.50
56040;BME280;43937;41.366;2.072;2023-05-02T02:59:22;100921.22;;;16.81;79.81
56040;BME280;43937;41.366;2.072;2023-05-02T03:01:58;100910.88;;;16.77;79.04
56040;BME280;43937;41.366;2.072;2023-05-02T03:04:28;100913.78;;;16.75;79.16
56040;BME280;43937;41.366;2.072;2023-05-02T03:09:02;100916.38;;;16.83;79.04
56040;BME280;43937;41.366;2.072;2023-05-02T03:12:25;100869.16;;;16.38;79.01
56040;BME280;43937;41.366;2.072;2023-05-02T03:14:51;100918.38;;;16.68;78.94
56040;BME280;43937;41.366;2.072;2023-05-02T03:17:17;100902.22;;;16.52;78.82
56040;BME280;43937;41.366;2.072;2023-05-02T03:20:53;100912.63;;;16.63;78.82
56040;BME280;43937;41.366;2.072;2023-05-02T03:23:18;100897.66;;;16.65;79.10
56040;BME280;43937;41.366;2.072;2023-05-02T03:25:44;100862.41;;;16.41;78.56
56040;BME280;43937;41.366;2.072;2023-05-02T03:28:09;100906.34;;;16.69;78.65
56040;BME280;43937;41.366;2.072;2023-05-02T03:30:35;100901.47;;;16.64;79.13
56040;BME280;43937;41.366;2.072;2023-05-02T03:33:04;100918.38;;;16.68;78.54
56040;BME280;43937;41.366;2.072;2023-05-02T03:35:31;100897.63;;;16.59;78.83
56040;BME280;43937;41.366;2.072;2023-05-02T03:37:57;100917.03;;;16.57;78.90
56040;BME280;43937;41.366;2.072;2023-05-02T03:40:22;100912.84;;;16.61;78.83
56040;BME280;43937;41.366;2.072;2023-05-02T03:42:48;100896.31;;;16.55;78.38
56040;BME280;43937;41.366;2.072;2023-05-02T03:45:13;100906.75;;;16.66;77.82
56040;BME280;43937;41.366;2.072;2023-05-02T03:47:39;100917.13;;;16.70;77.68
56040;BME280;43937;41.366;2.072;2023-05-02T03:50:05;100905.59;;;16.54;77.83
56040;BME280;43937;41.366;2.072;2023-05-02T03:52:32;100905.69;;;16.67;77.69
56040;BME280;43937;41.366;2.072;2023-05-02T03:55:00;100910.03;;;16.55;77.80
56040;BME280;43937;41.366;2.072;2023-05-02T03:57:25;100900.53;;;16.51;77.50
56040;BME280;43937;41.366;2.072;2023-05-02T04:00:34;100908.97;;;16.49;77.53
56040;BME280;43937;41.366;2.072;2023-05-02T04:03:00;100905.19;;;16.57;77.70
56040;BME280;43937;41.366;2.072;2023-05-02T04:05:26;100907.13;;;16.56;77.94
56040;BME280;43937;41.366;2.072;2023-05-02T04:07:51;100899.22;;;16.46;78.47
56040;BME280;43937;41.366;2.072;2023-05-02T04:10:17;100881.44;;;16.42;78.20
56040;BME280;43937;41.366;2.072;2023-05-02T04:12:43;100899.28;;;16.53;78.05
56040;BME280;43937;41.366;2.072;2023-05-02T04:15:09;100896.72;;;16.52;78.26
56040;BME280;43937;41.366;2.072;2023-05-02T04:17:35;100865.94;;;16.28;78.20
56040;BME280;43937;41.366;2.072;2023-05-02T04:20:00;100887.84;;;16.49;77.73
56040;BME280;43937;41.366;2.072;2023-05-02T04:22:26;100840.19;;;16.01;78.08
56040;BME280;43937;41.366;2.072;2023-05-02T04:24:52;100900.44;;;16.37;77.98
56040;BME280;43937;41.366;2.072;2023-05-02T04:27:18;100905.94;;;16.37;78.20
56040;BME280;43937;41.366;2.072;2023-05-02T04:29:47;100879.00;;;16.26;77.67
56040;BME280;43937;41.366;2.072;2023-05-02T04:32:12;100899.97;;;16.34;77.67
56040;BME280;43937;41.366;2.072;2023-05-02T04:34:38;100907.19;;;16.35;77.85
56040;BME280;43937;41.366;2.072;2023-05-02T04:37:03;100907.63;;;16.38;77.65
56040;BME280;43937;41.366;2.072;2023-05-02T04:39:29;100914.41;;;16.42;76.98
56040;BME280;43937;41.366;2.072;2023-05-02T04:41:54;100922.88;;;16.41;77.09
56040;BME280;43937;41.366;2.072;2023-05-02T04:44:20;100885.97;;;16.22;77.13
56040;BME280;43937;41.366;2.072;2023-05-02T04:46:45;100913.97;;;16.39;76.23
56040;BME280;43937;41.366;2.072;2023-05-02T04:49:10;100919.91;;;16.42;76.76
56040;BME280;43937;41.366;2.072;2023-05-02T04:51:36;100928.25;;;16.56;76.30
56040;BME280;43937;41.366;2.072;2023-05-02T04:54:02;100922.03;;;16.40;76.33
56040;BME280;43937;41.366;2.072;2023-05-02T04:56:27;100941.59;;;16.59;75.72
56040;BME280;43937;41.366;2.072;2023-05-02T04:58:52;100897.22;;;16.34;75.77
56040;BME280;43937;41.366;2.072;2023-05-02T05:02:56;100936.97;;;16.66;75.22
56040;BME280;43937;41.366;2.072;2023-05-02T05:05:21;100926.94;;;16.80;74.39
56040;BME280;43937;41.366;2.072;2023-05-02T05:07:47;100947.28;;;16.85;74.69
56040;BME280;43937;41.366;2.072;2023-05-02T05:10:12;100945.41;;;16.92;74.33
56040;BME280;43937;41.366;2.072;2023-05-02T05:12:38;100933.34;;;16.93;73.64
56040;BME280;43937;41.366;2.072;2023-05-02T05:15:03;100917.66;;;16.87;73.16
56040;BME280;43937;41.366;2.072;2023-05-02T05:17:29;100959.34;;;17.32;72.19
56040;BME280;43937;41.366;2.072;2023-05-02T05:19:54;100954.69;;;17.39;72.48
56040;BME280;43937;41.366;2.072;2023-05-02T05:22:20;100953.69;;;17.47;71.65
56040;BME280;43937;41.366;2.072;2023-05-02T05:24:52;100929.06;;;17.26;71.07
56040;BME280;43937;41.366;2.072;2023-05-02T05:27:18;100960.25;;;17.46;71.23
56040;BME280;43937;41.366;2.072;2023-05-02T05:29:43;100950.94;;;17.54;70.52
56040;BME280;43937;41.366;2.072;2023-05-02T05:32:09;100981.97;;;17.82;69.68
56040;BME280;43937;41.366;2.072;2023-05-02T05:34:34;100973.50;;;17.77;69.39
56040;BME280;43937;41.366;2.072;2023-05-02T05:38:04;100982.03;;;21.47;57.84
56040;BME280;43937;41.366;2.072;2023-05-02T05:41:46;100952.75;;;22.12;54.07
56040;BME280;43937;41.366;2.072;2023-05-02T05:44:12;100969.69;;;23.97;49.10
56040;BME280;43937;41.366;2.072;2023-05-02T05:46:37;101006.06;;;25.30;46.44
56040;BME280;43937;41.366;2.072;2023-05-02T05:50:48;100973.16;;;27.68;40.54
56040;BME280;43937;41.366;2.072;2023-05-02T05:53:15;100985.06;;;28.26;39.70
56040;BME280;43937;41.366;2.072;2023-05-02T05:55:40;100996.81;;;28.23;38.44
56040;BME280;43937;41.366;2.072;2023-05-02T05:58:06;100978.94;;;28.45;37.02
56040;BME280;43937;41.366;2.072;2023-05-02T06:00:39;100999.31;;;29.17;36.87
56040;BME280;43937;41.366;2.072;2023-05-02T06:03:04;101020.00;;;29.36;36.11
56040;BME280;43937;41.366;2.072;2023-05-02T06:05:30;101002.22;;;27.52;39.50
56040;BME280;43937;41.366;2.072;2023-05-02T06:07:56;101015.97;;;27.74;38.73
56040;BME280;43937;41.366;2.072;2023-05-02T06:11:42;100991.97;;;24.48;44.60
56040;BME280;43937;41.366;2.072;2023-05-02T06:14:08;101004.75;;;24.60;45.33
56040;BME280;43937;41.366;2.072;2023-05-02T06:16:33;100980.97;;;25.08;44.24
56040;BME280;43937;41.366;2.072;2023-05-02T06:18:59;101013.91;;;24.44;45.75
56040;BME280;43937;41.366;2.072;2023-05-02T06:21:24;101012.16;;;23.40;48.80
56040;BME280;43937;41.366;2.072;2023-05-02T06:23:51;101006.91;;;23.03;49.25
56040;BME280;43937;41.366;2.072;2023-05-02T06:27:31;100990.00;;;25.38;44.99
56040;BME280;43937;41.366;2.072;2023-05-02T06:29:56;100995.28;;;27.12;40.53
56040;BME280;43937;41.366;2.072;2023-05-02T06:32:22;101007.13;;;27.92;40.63
56040;BME280;43937;41.366;2.072;2023-05-02T06:34:47;101002.38;;;29.15;38.26
56040;BME280;43937;41.366;2.072;2023-05-02T06:37:13;100992.88;;;30.26;35.99
56040;BME280;43937;41.366;2.072;2023-05-02T06:39:38;101003.44;;;30.73;34.94
56040;BME280;43937;41.366;2.072;2023-05-02T06:42:04;101019.16;;;30.40;35.12
56040;BME280;43937;41.366;2.072;2023-05-02T06:44:29;101016.47;;;28.54;37.84
56040;BME280;43937;41.366;2.072;2023-05-02T06:46:55;101019.63;;;25.88;42.77
56040;BME280;43937;41.366;2.072;2023-05-02T06:49:21;101024.97;;;24.10;46.62
56040;BME280;43937;41.366;2.072;2023-05-02T06:51:47;101023.31;;;22.81;49.76
56040;BME280;43937;41.366;2.072;2023-05-02T06:54:12;101029.78;;;23.46;48.79
56040;BME280;43937;41.366;2.072;2023-05-02T06:56:40;101029.38;;;24.23;47.55
56040;BME280;43937;41.366;2.072;2023-05-02T06:59:05;101010.44;;;24.54;46.42
56040;BME280;43937;41.366;2.072;2023-05-02T07:01:31;101036.19;;;26.54;42.34
56040;BME280;43937;41.366;2.072;2023-05-02T07:04:59;101030.88;;;26.89;41.16
56040;BME280;43937;41.366;2.072;2023-05-02T07:11:44;101041.34;;;24.23;47.06
56040;BME280;43937;41.366;2.072;2023-05-02T07:15:20;101040.66;;;24.62;45.50
56040;BME280;43937;41.366;2.072;2023-05-02T07:19:27;101043.31;;;25.07;44.53
56040;BME280;43937;41.366;2.072;2023-05-02T07:21:53;101042.94;;;27.32;40.03
56040;BME280;43937;41.366;2.072;2023-05-02T07:24:18;101042.63;;;26.27;42.08
56040;BME280;43937;41.366;2.072;2023-05-02T07:30:54;101048.50;;;30.19;35.58
56040;BME280;43937;41.366;2.072;2023-05-02T07:33:19;101050.00;;;28.28;38.36
56040;BME280;43937;41.366;2.072;2023-05-02T07:35:45;101053.25;;;31.26;33.33
56040;BME280;43937;41.366;2.072;2023-05-02T07:38:10;101044.69;;;30.44;33.93
56040;BME280;43937;41.366;2.072;2023-05-02T07:40:36;101048.25;;;27.97;38.77
56040;BME280;43937;41.366;2.072;2023-05-02T07:43:02;101056.97;;;26.63;41.99
56040;BME280;43937;41.366;2.072;2023-05-02T07:45:27;101046.88;;;26.35;42.52
56040;BME280;43937;41.366;2.072;2023-05-02T07:47:53;101045.38;;;26.22;43.75
56040;BME280;43937;41.366;2.072;2023-05-02T07:50:18;101014.50;;;26.61;42.56
56040;BME280;43937;41.366;2.072;2023-05-02T07:54:26;101046.94;;;27.52;40.71
56040;BME280;43937;41.366;2.072;2023-05-02T07:56:51;101049.41;;;27.01;41.80
56040;BME280;43937;41.366;2.072;2023-05-02T08:00:27;101044.78;;;26.20;43.21
56040;BME280;43937;41.366;2.072;2023-05-02T08:02:53;101045.16;;;26.01;44.74
56040;BME280;43937;41.366;2.072;2023-05-02T08:05:18;101042.47;;;26.12;43.35
56040;BME280;43937;41.366;2.072;2023-05-02T08:10:18;101050.06;;;25.50;45.12
56040;BME280;43937;41.366;2.072;2023-05-02T08:13:22;101050.31;;;26.42;43.53
56040;BME280;43937;41.366;2.072;2023-05-02T08:18:47;101058.22;;;27.14;42.81
56040;BME280;43937;41.366;2.072;2023-05-02T08:21:47;101051.81;;;29.76;37.85
56040;BME280;43937;41.366;2.072;2023-05-02T08:24:13;101045.63;;;29.79;37.44
56040;BME280;43937;41.366;2.072;2023-05-02T08:26:38;101046.59;;;31.65;34.74
56040;BME280;43937;41.366;2.072;2023-05-02T08:30:05;101040.53;;;34.96;29.27
56040;BME280;43937;41.366;2.072;2023-05-02T08:32:35;101068.09;;;35.44;28.44
56040;BME280;43937;41.366;2.072;2023-05-02T08:35:01;101060.16;;;34.70;27.80
56040;BME280;43937;41.366;2.072;2023-05-02T08:37:27;101050.78;;;35.05;28.08
56040;BME280;43937;41.366;2.072;2023-05-02T08:41:02;101052.44;;;33.47;29.69
56040;BME280;43937;41.366;2.072;2023-05-02T08:48:15;101053.78;;;30.65;32.23
56040;BME280;43937;41.366;2.072;2023-05-02T08:50:43;101059.31;;;29.96;33.52
56040;BME280;43937;41.366;2.072;2023-05-02T08:53:11;101042.50;;;28.85;34.91
56040;BME280;43937;41.366;2.072;2023-05-02T08:55:39;101062.31;;;28.27;37.08
56040;BME280;43937;41.366;2.072;2023-05-02T08:58:06;101023.72;;;28.70;35.23
56040;BME280;43937;41.366;2.072;2023-05-02T09:00:39;101057.78;;;29.59;34.25
56040;BME280;43937;41.366;2.072;2023-05-02T09:07:45;101050.88;;;28.80;35.90
56040;BME280;43937;41.366;2.072;2023-05-02T09:11:55;101045.28;;;27.13;38.36
56040;BME280;43937;41.366;2.072;2023-05-02T09:14:20;101053.31;;;27.00;38.77
56040;BME280;43937;41.366;2.072;2023-05-02T09:18:50;101042.06;;;27.90;37.38
56040;BME280;43937;41.366;2.072;2023-05-02T09:21:20;101042.22;;;28.82;35.57
56040;BME280;43937;41.366;2.072;2023-05-02T09:23:56;101037.53;;;27.73;37.66
56040;BME280;43937;41.366;2.072;2023-05-02T09:26:25;101041.66;;;28.44;36.81
56040;BME280;43937;41.366;2.072;2023-05-02T09:28:54;101039.41;;;28.97;35.27
56040;BME280;43937;41.366;2.072;2023-05-02T09:31:29;101052.84;;;29.10;35.82
56040;BME280;43937;41.366;2.072;2023-05-02T09:33:55;101050.59;;;28.97;35.59
56040;BME280;43937;41.366;2.072;2023-05-02T09:36:21;101045.00;;;28.41;35.94
56040;BME280;43937;41.366;2.072;2023-05-02T09:38:48;101024.81;;;28.23;37.71
56040;BME280;43937;41.366;2.072;2023-05-02T09:41:26;101032.66;;;28.21;37.39
56040;BME280;43937;41.366;2.072;2023-05-02T09:44:03;101051.75;;;27.67;38.27
56040;BME280;43937;41.366;2.072;2023-05-02T09:46:42;101045.03;;;27.57;38.37
56040;BME280;43937;41.366;2.072;2023-05-02T09:49:08;101034.94;;;28.81;35.99
56040;BME280;43937;41.366;2.072;2023-05-02T09:51:36;101013.28;;;28.04;37.00
56040;BME280;43937;41.366;2.072;2023-05-02T09:54:02;101020.31;;;28.12;37.49
56040;BME280;43937;41.366;2.072;2023-05-02T09:56:28;101032.34;;;28.23;36.42
56040;BME280;43937;41.366;2.072;2023-05-02T09:59:26;101037.38;;;28.11;37.42
56040;BME280;43937;41.366;2.072;2023-05-02T10:01:55;101032.28;;;27.92;37.12
56040;BME280;43937;41.366;2.072;2023-05-02T10:04:21;101045.13;;;27.78;37.57
56040;BME280;43937;41.366;2.072;2023-05-02T10:07:28;101043.06;;;27.58;38.37
56040;BME280;43937;41.366;2.072;2023-05-02T10:09:56;101041.66;;;27.55;38.34
56040;BME280;43937;41.366;2.072;2023-05-02T10:12:59;101034.63;;;28.31;37.86
56040;BME280;43937;41.366;2.072;2023-05-02T10:16:06;101032.81;;;27.26;38.11
56040;BME280;43937;41.366;2.072;2023-05-02T10:21:15;101026.06;;;26.80;39.18
56040;BME280;43937;41.366;2.072;2023-05-02T10:23:43;101032.66;;;26.63;39.47
56040;BME280;43937;41.366;2.072;2023-05-02T10:26:13;101028.72;;;26.97;38.90
56040;BME280;43937;41.366;2.072;2023-05-02T10:28:40;101021.03;;;27.77;38.27
56040;BME280;43937;41.366;2.072;2023-05-02T10:32:03;101019.53;;;28.42;37.04
56040;BME280;43937;41.366;2.072;2023-05-02T10:34:31;100980.00;;;28.03;38.08
56040;BME280;43937;41.366;2.072;2023-05-02T10:36:58;101004.66;;;28.83;37.24
56040;BME280;43937;41.366;2.072;2023-05-02T10:39:26;101008.78;;;29.36;35.15
56040;BME280;43937;41.366;2.072;2023-05-02T10:41:54;101018.06;;;29.01;34.61
56040;BME280;43937;41.366;2.072;2023-05-02T10:44:36;101022.81;;;28.14;37.44
56040;BME280;43937;41.366;2.072;2023-05-02T10:47:22;101002.06;;;27.89;37.34
56040;BME280;43937;41.366;2.072;2023-05-02T10:52:36;100979.34;;;29.29;35.83
56040;BME280;43937;41.366;2.072;2023-05-02T10:55:21;101002.50;;;29.65;35.35
56040;BME280;43937;41.366;2.072;2023-05-02T11:00:28;100992.78;;;29.37;34.96
56040;BME280;43937;41.366;2.072;2023-05-02T11:02:54;100960.78;;;29.48;35.06
56040;BME280;43937;41.366;2.072;2023-05-02T11:05:21;100987.00;;;28.97;35.98
56040;BME280;43937;41.366;2.072;2023-05-02T11:07:47;100962.34;;;28.89;34.67
56040;BME280;43937;41.366;2.072;2023-05-02T11:12:57;100976.44;;;29.54;33.73
56040;BME280;43937;41.366;2.072;2023-05-02T11:18:00;100981.41;;;29.78;34.19
56040;BME280;43937;41.366;2.072;2023-05-02T11:20:26;100981.47;;;29.57;35.62
56040;BME280;43937;41.366;2.072;2023-05-02T11:22:53;100975.13;;;29.36;35.28
56040;BME280;43937;41.366;2.072;2023-05-02T11:25:32;100972.59;;;29.35;35.30
56040;BME280;43937;41.366;2.072;2023-05-02T11:27:58;100950.78;;;29.21;35.01
56040;BME280;43937;41.366;2.072;2023-05-02T11:30:38;100968.63;;;29.46;35.24
56040;BME280;43937;41.366;2.072;2023-05-02T11:37:35;100965.09;;;29.20;36.21
56040;BME280;43937;41.366;2.072;2023-05-02T11:40:11;100969.59;;;29.11;36.40
56040;BME280;43937;41.366;2.072;2023-05-02T11:42:36;100957.28;;;29.17;36.60
56040;BME280;43937;41.366;2.072;2023-05-02T11:45:02;100966.78;;;29.16;36.41
56040;BME280;43937;41.366;2.072;2023-05-02T11:47:28;100964.78;;;29.27;35.77
56040;BME280;43937;41.366;2.072;2023-05-02T11:49:56;100937.28;;;29.29;36.72
56040;BME280;43937;41.366;2.072;2023-05-02T11:52:22;100918.13;;;28.76;37.56
56040;BME280;43937;41.366;2.072;2023-05-02T11:54:49;100941.41;;;28.51;38.35
56040;BME280;43937;41.366;2.072;2023-05-02T11:57:17;100962.09;;;28.24;39.57
56040;BME280;43937;41.366;2.072;2023-05-02T11:59:54;100960.09;;;28.96;37.90
56040;BME280;43937;41.366;2.072;2023-05-02T12:02:37;100959.84;;;28.83;38.55
56040;BME280;43937;41.366;2.072;2023-05-02T12:05:04;100951.69;;;28.96;37.80
56040;BME280;43937;41.366;2.072;2023-05-02T12:07:44;100950.06;;;28.70;38.72
56040;BME280;43937;41.366;2.072;2023-05-02T12:10:11;100954.56;;;28.61;38.42
56040;BME280;43937;41.366;2.072;2023-05-02T12:12:38;100958.47;;;28.34;39.60
56040;BME280;43937;41.366;2.072;2023-05-02T12:15:05;100953.13;;;28.38;39.11
56040;BME280;43937;41.366;2.072;2023-05-02T12:17:31;100955.91;;;27.86;40.83
56040;BME280;43937;41.366;2.072;2023-05-02T12:19:58;100961.38;;;27.46;41.96
56040;BME280;43937;41.366;2.072;2023-05-02T12:22:24;100948.09;;;27.99;40.27
56040;BME280;43937;41.366;2.072;2023-05-02T12:24:51;100890.13;;;27.69;39.23
56040;BME280;43937;41.366;2.072;2023-05-02T12:27:18;100963.53;;;28.52;39.11
56040;BME280;43937;41.366;2.072;2023-05-02T12:29:45;100966.56;;;28.76;37.95
56040;BME280;43937;41.366;2.072;2023-05-02T12:33:22;100957.81;;;27.76;40.22
56040;BME280;43937;41.366;2.072;2023-05-02T12:35:48;100966.44;;;27.54;40.69
56040;BME280;43937;41.366;2.072;2023-05-02T12:38:17;100967.16;;;28.12;39.19
56040;BME280;43937;41.366;2.072;2023-05-02T12:40:52;100968.72;;;27.72;39.53
56040;BME280;43937;41.366;2.072;2023-05-02T12:43:19;100971.22;;;27.74;39.26
56040;BME280;43937;41.366;2.072;2023-05-02T12:45:46;100982.22;;;27.96;38.75
56040;BME280;43937;41.366;2.072;2023-05-02T12:48:25;100975.25;;;27.93;38.68
56040;BME280;43937;41.366;2.072;2023-05-02T12:50:52;100972.06;;;27.06;39.62
56040;BME280;43937;41.366;2.072;2023-05-02T12:56:08;100966.75;;;27.68;39.71
56040;BME280;43937;41.366;2.072;2023-05-02T12:58:45;100956.66;;;27.61;38.44
56040;BME280;43937;41.366;2.072;2023-05-02T13:01:11;100965.41;;;27.85;38.18
56040;BME280;43937;41.366;2.072;2023-05-02T13:03:37;100954.81;;;28.28;37.60
56040;BME280;43937;41.366;2.072;2023-05-02T13:06:03;100927.97;;;28.17;37.73
56040;BME280;43937;41.366;2.072;2023-05-02T13:08:28;100945.56;;;27.82;38.20
56040;BME280;43937;41.366;2.072;2023-05-02T13:10:54;100951.44;;;27.85;38.56
56040;BME280;43937;41.366;2.072;2023-05-02T13:13:19;100949.06;;;27.47;39.09
56040;BME280;43937;41.366;2.072;2023-05-02T13:15:46;100942.16;;;27.75;39.12
56040;BME280;43937;41.366;2.072;2023-05-02T13:18:11;100920.25;;;27.41;40.01
56040;BME280;43937;41.366;2.072;2023-05-02T13:20:36;100924.81;;;27.00;40.55
56040;BME280;43937;41.366;2.072;2023-05-02T13:23:02;100945.50;;;27.67;39.35
56040;BME280;43937;41.366;2.072;2023-05-02T13:25:28;100945.75;;;27.65;40.64
56040;BME280;43937;41.366;2.072;2023-05-02T13:27:53;100949.13;;;27.57;40.42
56040;BME280;43937;41.366;2.072;2023-05-02T13:30:19;100950.44;;;27.44;40.47
56040;BME280;43937;41.366;2.072;2023-05-02T13:32:44;100958.16;;;27.16;42.10
56040;BME280;43937;41.366;2.072;2023-05-02T13:35:10;100949.03;;;27.36;41.25
56040;BME280;43937;41.366;2.072;2023-05-02T13:37:38;100942.91;;;27.50;40.51
56040;BME280;43937;41.366;2.072;2023-05-02T13:40:05;100939.47;;;27.22;41.54
56040;BME280;43937;41.366;2.072;2023-05-02T13:42:31;100934.47;;;27.34;41.02
56040;BME280;43937;41.366;2.072;2023-05-02T13:46:06;100949.59;;;26.86;42.04
56040;BME280;43937;41.366;2.072;2023-05-02T13:48:31;100915.81;;;26.87;41.92
56040;BME280;43937;41.366;2.072;2023-05-02T13:50:57;100950.00;;;27.10;41.36
56040;BME280;43937;41.366;2.072;2023-05-02T13:53:22;100922.91;;;26.25;42.94
56040;BME280;43937;41.366;2.072;2023-05-02T13:55:48;100940.53;;;26.63;42.23
56040;BME280;43937;41.366;2.072;2023-05-02T13:58:13;100942.72;;;26.61;42.13
56040;BME280;43937;41.366;2.072;2023-05-02T14:00:39;100942.50;;;26.68;42.10
56040;BME280;43937;41.366;2.072;2023-05-02T14:03:04;100936.84;;;26.58;41.64
56040;BME280;43937;41.366;2.072;2023-05-02T14:05:30;100945.91;;;26.80;40.99
56040;BME280;43937;41.366;2.072;2023-05-02T14:07:56;100949.66;;;26.96;40.76
56040;BME280;43937;41.366;2.072;2023-05-02T14:10:21;100898.34;;;25.90;42.44
56040;BME280;43937;41.366;2.072;2023-05-02T14:13:25;100947.47;;;26.23;42.34
56040;BME280;43937;41.366;2.072;2023-05-02T14:15:52;100941.53;;;26.20;42.80
56040;BME280;43937;41.366;2.072;2023-05-02T14:18:17;100941.72;;;26.40;42.60
56040;BME280;43937;41.366;2.072;2023-05-02T14:20:43;100938.31;;;26.33;42.64
56040;BME280;43937;41.366;2.072;2023-05-02T14:23:09;100902.84;;;26.66;41.20